sensor_id;sensor_type;location;lat;lon;timestamp;temperature;humidity
80234;DHT22;69712;42.142;24.766;2023-07-30T00:01:43;25.50;36.20
80234;DHT22;69712;42.142;24.766;2023-07-30T00:04:08;25.70;36.10
80234;DHT22;69712;42.142;24.766;2023-07-30T00:06:34;25.70;36.10
80234;DHT22;69712;42.142;24.766;2023-07-30T00:09:00;25.60;35.40
80234;DHT22;69712;42.142;24.766;2023-07-30T00:11:25;25.50;35.90
80234;DHT22;69712;42.142;24.766;2023-07-30T00:13:51;25.50;35.70
80234;DHT22;69712;42.142;24.766;2023-07-30T00:16:17;25.50;35.60
80234;DHT22;69712;42.142;24.766;2023-07-30T00:18:42;25.60;35.50
80234;DHT22;69712;42.142;24.766;2023-07-30T00:21:08;25.60;35.20
80234;DHT22;69712;42.142;24.766;2023-07-30T00:23:34;25.70;35.10
80234;DHT22;69712;42.142;24.766;2023-07-30T00:25:59;25.70;35.40
80234;DHT22;69712;42.142;24.766;2023-07-30T00:28:25;25.60;35.70
80234;DHT22;69712;42.142;24.766;2023-07-30T00:30:51;25.60;35.50
80234;DHT22;69712;42.142;24.766;2023-07-30T00:33:16;25.70;35.10
80234;DHT22;69712;42.142;24.766;2023-07-30T00:35:42;25.60;35.10
80234;DHT22;69712;42.142;24.766;2023-07-30T00:38:08;25.40;35.50
80234;DHT22;69712;42.142;24.766;2023-07-30T00:40:40;25.20;35.90
80234;DHT22;69712;42.142;24.766;2023-07-30T00:43:06;25.30;35.70
80234;DHT22;69712;42.142;24.766;2023-07-30T00:45:32;25.20;35.90
80234;DHT22;69712;42.142;24.766;2023-07-30T00:47:57;25.20;36.00
80234;DHT22;69712;42.142;24.766;2023-07-30T00:50:23;25.30;36.00
80234;DHT22;69712;42.142;24.766;2023-07-30T00:52:49;25.30;35.90
80234;DHT22;69712;42.142;24.766;2023-07-30T00:55:15;25.20;36.00
80234;DHT22;69712;42.142;24.766;2023-07-30T00:57:41;25.20;36.30
80234;DHT22;69712;42.142;24.766;2023-07-30T01:00:08;24.80;37.10
80234;DHT22;69712;42.142;24.766;2023-07-30T01:02:36;24.80;37.50
80234;DHT22;69712;42.142;24.766;2023-07-30T01:05:02;24.80;37.30
80234;DHT22;69712;42.142;24.766;2023-07-30T01:07:32;24.50;37.90
80234;DHT22;69712;42.142;24.766;2023-07-30T01:09:58;24.60;38.20
80234;DHT22;69712;42.142;24.766;2023-07-30T01:12:25;24.60;38.10
80234;DHT22;69712;42.142;24.766;2023-07-30T01:14:52;24.40;38.70
80234;DHT22;69712;42.142;24.766;2023-07-30T01:17:20;24.20;39.40
80234;DHT22;69712;42.142;24.766;2023-07-30T01:19:46;24.30;39.20
80234;DHT22;69712;42.142;24.766;2023-07-30T01:22:15;24.10;40.00
80234;DHT22;69712;42.142;24.766;2023-07-30T01:24:41;24.30;39.20
80234;DHT22;69712;42.142;24.766;2023-07-30T01:27:16;24.50;39.50
80234;DHT22;69712;42.142;24.766;2023-07-30T01:29:52;24.60;39.30
80234;DHT22;69712;42.142;24.766;2023-07-30T01:32:23;24.60;39.00
80234;DHT22;69712;42.142;24.766;2023-07-30T01:34:52;24.40;38.80
80234;DHT22;69712;42.142;24.766;2023-07-30T01:37:19;24.50;38.40
80234;DHT22;69712;42.142;24.766;2023-07-30T01:39:48;24.70;37.80
80234;DHT22;69712;42.142;24.766;2023-07-30T01:42:14;24.70;38.50
80234;DHT22;69712;42.142;24.766;2023-07-30T01:44:40;24.70;38.00
80234;DHT22;69712;42.142;24.766;2023-07-30T01:47:06;24.70;37.80
80234;DHT22;69712;42.142;24.766;2023-07-30T01:49:31;24.70;37.90
80234;DHT22;69712;42.142;24.766;2023-07-30T01:51:57;24.70;37.90
80234;DHT22;69712;42.142;24.766;2023-07-30T01:54:23;24.70;37.90
80234;DHT22;69712;42.142;24.766;2023-07-30T01:56:48;24.70;38.20
80234;DHT22;69712;42.142;24.766;2023-07-30T01:59:14;24.90;38.50
80234;DHT22;69712;42.142;24.766;2023-07-30T02:01:41;25.00;38.70
80234;DHT22;69712;42.142;24.766;2023-07-30T02:04:06;24.90;39.20
80234;DHT22;69712;42.142;24.766;2023-07-30T02:06:32;24.80;39.70
80234;DHT22;69712;42.142;24.766;2023-07-30T02:08:58;24.70;39.80
80234;DHT22;69712;42.142;24.766;2023-07-30T02:11:23;24.80;39.40
80234;DHT22;69712;42.142;24.766;2023-07-30T02:13:49;24.80;39.30
80234;DHT22;69712;42.142;24.766;2023-07-30T02:16:15;24.30;39.80
80234;DHT22;69712;42.142;24.766;2023-07-30T02:18:41;24.20;40.20
80234;DHT22;69712;42.142;24.766;2023-07-30T02:21:06;24.20;40.60
80234;DHT22;69712;42.142;24.766;2023-07-30T02:23:32;24.20;40.50
80234;DHT22;69712;42.142;24.766;2023-07-30T02:25:58;24.40;40.10
80234;DHT22;69712;42.142;24.766;2023-07-30T02:28:23;24.30;40.20
80234;DHT22;69712;42.142;24.766;2023-07-30T02:30:49;24.30;40.10
80234;DHT22;69712;42.142;24.766;2023-07-30T02:33:15;24.30;40.00
80234;DHT22;69712;42.142;24.766;2023-07-30T02:35:43;24.40;40.00
80234;DHT22;69712;42.142;24.766;2023-07-30T02:38:08;24.50;40.10
80234;DHT22;69712;42.142;24.766;2023-07-30T02:40:34;24.50;40.10
80234;DHT22;69712;42.142;24.766;2023-07-30T02:43:00;24.60;39.90
80234;DHT22;69712;42.142;24.766;2023-07-30T02:45:26;24.70;39.70
80234;DHT22;69712;42.142;24.766;2023-07-30T02:47:51;24.60;39.90
80234;DHT22;69712;42.142;24.766;2023-07-30T02:50:17;24.50;40.00
80234;DHT22;69712;42.142;24.766;2023-07-30T02:52:43;24.40;40.00
80234;DHT22;69712;42.142;24.766;2023-07-30T02:55:09;24.30;40.40
80234;DHT22;69712;42.142;24.766;2023-07-30T02:57:34;24.30;40.30
80234;DHT22;69712;42.142;24.766;2023-07-30T03:00:00;24.40;40.10
80234;DHT22;69712;42.142;24.766;2023-07-30T03:02:26;24.30;40.20
80234;DHT22;69712;42.142;24.766;2023-07-30T03:04:52;24.10;40.50
80234;DHT22;69712;42.142;24.766;2023-07-30T03:07:17;24.00;40.80
80234;DHT22;69712;42.142;24.766;2023-07-30T03:09:44;24.00;41.00
80234;DHT22;69712;42.142;24.766;2023-07-30T03:12:09;23.90;41.00
80234;DHT22;69712;42.142;24.766;2023-07-30T03:14:35;24.00;41.00
80234;DHT22;69712;42.142;24.766;2023-07-30T03:17:01;24.00;41.30
80234;DHT22;69712;42.142;24.766;2023-07-30T03:19:27;23.90;41.10
80234;DHT22;69712;42.142;24.766;2023-07-30T03:21:52;23.90;41.20
80234;DHT22;69712;42.142;24.766;2023-07-30T03:24:18;24.00;41.20
80234;DHT22;69712;42.142;24.766;2023-07-30T03:26:44;23.90;41.30
80234;DHT22;69712;42.142;24.766;2023-07-30T03:29:09;24.00;41.40
80234;DHT22;69712;42.142;24.766;2023-07-30T03:31:35;23.80;41.50
80234;DHT22;69712;42.142;24.766;2023-07-30T03:34:01;23.90;41.40
80234;DHT22;69712;42.142;24.766;2023-07-30T03:36:26;23.80;41.80
80234;DHT22;69712;42.142;24.766;2023-07-30T03:38:52;23.90;41.60
80234;DHT22;69712;42.142;24.766;2023-07-30T03:41:18;23.90;41.40
80234;DHT22;69712;42.142;24.766;2023-07-30T03:43:43;23.50;42.40
80234;DHT22;69712;42.142;24.766;2023-07-30T03:46:09;23.40;42.80
80234;DHT22;69712;42.142;24.766;2023-07-30T03:48:35;23.30;43.20
80234;DHT22;69712;42.142;24.766;2023-07-30T03:51:00;23.60;42.70
80234;DHT22;69712;42.142;24.766;2023-07-30T03:53:26;23.70;42.30
80234;DHT22;69712;42.142;24.766;2023-07-30T03:55:52;23.90;42.00
80234;DHT22;69712;42.142;24.766;2023-07-30T03:58:17;24.00;41.90
80234;DHT22;69712;42.142;24.766;2023-07-30T04:00:43;23.90;42.00
80234;DHT22;69712;42.142;24.766;2023-07-30T04:03:09;24.10;41.80
80234;DHT22;69712;42.142;24.766;2023-07-30T04:05:34;24.20;41.50
80234;DHT22;69712;42.142;24.766;2023-07-30T04:08:00;24.30;41.40
80234;DHT22;69712;42.142;24.766;2023-07-30T04:10:26;24.30;41.50
80234;DHT22;69712;42.142;24.766;2023-07-30T04:12:51;24.50;41.40
80234;DHT22;69712;42.142;24.766;2023-07-30T04:15:17;24.50;41.50
80234;DHT22;69712;42.142;24.766;2023-07-30T04:17:43;24.50;41.40
80234;DHT22;69712;42.142;24.766;2023-07-30T04:20:09;24.60;41.20
80234;DHT22;69712;42.142;24.766;2023-07-30T04:22:38;24.60;40.90
80234;DHT22;69712;42.142;24.766;2023-07-30T04:25:07;24.60;40.60
80234;DHT22;69712;42.142;24.766;2023-07-30T04:27:33;24.70;40.50
80234;DHT22;69712;42.142;24.766;2023-07-30T04:29:59;24.70;40.30
80234;DHT22;69712;42.142;24.766;2023-07-30T04:32:24;24.60;40.30
80234;DHT22;69712;42.142;24.766;2023-07-30T04:34:50;24.60;40.10
80234;DHT22;69712;42.142;24.766;2023-07-30T04:37:16;24.70;39.90
80234;DHT22;69712;42.142;24.766;2023-07-30T04:39:41;24.70;40.00
80234;DHT22;69712;42.142;24.766;2023-07-30T04:42:07;24.80;39.60
80234;DHT22;69712;42.142;24.766;2023-07-30T04:44:33;24.90;39.50
80234;DHT22;69712;42.142;24.766;2023-07-30T04:46:59;24.90;39.40
80234;DHT22;69712;42.142;24.766;2023-07-30T04:49:24;24.90;39.40
80234;DHT22;69712;42.142;24.766;2023-07-30T04:51:50;24.90;39.50
80234;DHT22;69712;42.142;24.766;2023-07-30T04:54:16;24.90;39.20
80234;DHT22;69712;42.142;24.766;2023-07-30T04:56:41;24.80;39.60
80234;DHT22;69712;42.142;24.766;2023-07-30T04:59:07;24.90;39.50
80234;DHT22;69712;42.142;24.766;2023-07-30T05:01:33;24.80;39.70
80234;DHT22;69712;42.142;24.766;2023-07-30T05:03:58;24.90;39.80
80234;DHT22;69712;42.142;24.766;2023-07-30T05:06:24;25.10;39.50
80234;DHT22;69712;42.142;24.766;2023-07-30T05:08:50;24.90;39.80
80234;DHT22;69712;42.142;24.766;2023-07-30T05:11:15;24.80;39.90
80234;DHT22;69712;42.142;24.766;2023-07-30T05:13:41;24.90;39.90
80234;DHT22;69712;42.142;24.766;2023-07-30T05:16:07;24.90;39.90
80234;DHT22;69712;42.142;24.766;2023-07-30T05:18:32;25.10;39.70
80234;DHT22;69712;42.142;24.766;2023-07-30T05:20:58;25.20;39.40
80234;DHT22;69712;42.142;24.766;2023-07-30T05:23:24;25.40;38.80
80234;DHT22;69712;42.142;24.766;2023-07-30T05:25:49;25.50;38.20
80234;DHT22;69712;42.142;24.766;2023-07-30T05:28:15;25.50;37.90
80234;DHT22;69712;42.142;24.766;2023-07-30T05:30:41;25.50;38.00
80234;DHT22;69712;42.142;24.766;2023-07-30T05:33:06;25.60;37.90
80234;DHT22;69712;42.142;24.766;2023-07-30T05:35:32;25.60;38.00
80234;DHT22;69712;42.142;24.766;2023-07-30T05:37:58;25.60;38.20
80234;DHT22;69712;42.142;24.766;2023-07-30T05:40:24;25.40;38.00
80234;DHT22;69712;42.142;24.766;2023-07-30T05:42:49;25.60;38.30
80234;DHT22;69712;42.142;24.766;2023-07-30T05:45:15;25.50;38.00
80234;DHT22;69712;42.142;24.766;2023-07-30T05:47:41;25.60;37.90
80234;DHT22;69712;42.142;24.766;2023-07-30T05:50:07;25.70;37.10
80234;DHT22;69712;42.142;24.766;2023-07-30T05:52:33;25.80;36.80
80234;DHT22;69712;42.142;24.766;2023-07-30T05:54:59;26.00;36.60
80234;DHT22;69712;42.142;24.766;2023-07-30T05:57:25;26.20;36.90
80234;DHT22;69712;42.142;24.766;2023-07-30T05:59:51;26.20;36.70
80234;DHT22;69712;42.142;24.766;2023-07-30T06:02:17;26.30;36.30
80234;DHT22;69712;42.142;24.766;2023-07-30T06:04:43;26.30;35.90
80234;DHT22;69712;42.142;24.766;2023-07-30T06:07:09;26.30;35.90
80234;DHT22;69712;42.142;24.766;2023-07-30T06:09:36;26.50;35.90
80234;DHT22;69712;42.142;24.766;2023-07-30T06:12:01;26.60;35.90
80234;DHT22;69712;42.142;24.766;2023-07-30T06:14:28;26.70;35.70
80234;DHT22;69712;42.142;24.766;2023-07-30T06:16:54;26.80;35.40
80234;DHT22;69712;42.142;24.766;2023-07-30T06:19:20;26.90;35.80
80234;DHT22;69712;42.142;24.766;2023-07-30T06:21:46;27.10;34.60
80234;DHT22;69712;42.142;24.766;2023-07-30T06:24:12;27.50;34.00
80234;DHT22;69712;42.142;24.766;2023-07-30T06:26:37;28.20;32.90
80234;DHT22;69712;42.142;24.766;2023-07-30T06:29:03;29.60;31.10
80234;DHT22;69712;42.142;24.766;2023-07-30T06:31:29;31.40;29.40
80234;DHT22;69712;42.142;24.766;2023-07-30T06:33:55;33.20;27.40
80234;DHT22;69712;42.142;24.766;2023-07-30T06:36:21;34.20;26.30
80234;DHT22;69712;42.142;24.766;2023-07-30T06:38:47;35.70;25.60
80234;DHT22;69712;42.142;24.766;2023-07-30T06:41:13;36.70;24.00
80234;DHT22;69712;42.142;24.766;2023-07-30T06:43:39;37.70;23.20
80234;DHT22;69712;42.142;24.766;2023-07-30T06:46:05;38.90;21.90
80234;DHT22;69712;42.142;24.766;2023-07-30T06:48:30;40.00;21.00
80234;DHT22;69712;42.142;24.766;2023-07-30T06:50:57;40.60;20.10
80234;DHT22;69712;42.142;24.766;2023-07-30T06:53:22;41.20;19.70
80234;DHT22;69712;42.142;24.766;2023-07-30T06:55:48;41.90;19.40
80234;DHT22;69712;42.142;24.766;2023-07-30T06:58:14;41.20;19.30
80234;DHT22;69712;42.142;24.766;2023-07-30T07:00:40;42.30;18.70
80234;DHT22;69712;42.142;24.766;2023-07-30T07:03:05;42.50;18.50
80234;DHT22;69712;42.142;24.766;2023-07-30T07:05:31;43.00;18.00
80234;DHT22;69712;42.142;24.766;2023-07-30T07:07:57;42.60;18.30
80234;DHT22;69712;42.142;24.766;2023-07-30T07:10:23;43.30;17.90
80234;DHT22;69712;42.142;24.766;2023-07-30T07:12:48;43.60;17.50
80234;DHT22;69712;42.142;24.766;2023-07-30T07:15:15;43.90;17.20
80234;DHT22;69712;42.142;24.766;2023-07-30T07:17:41;43.80;17.10
80234;DHT22;69712;42.142;24.766;2023-07-30T07:20:07;44.30;16.90
80234;DHT22;69712;42.142;24.766;2023-07-30T07:22:34;44.80;16.70
80234;DHT22;69712;42.142;24.766;2023-07-30T07:24:59;45.20;16.90
80234;DHT22;69712;42.142;24.766;2023-07-30T07:27:25;44.90;16.40
80234;DHT22;69712;42.142;24.766;2023-07-30T07:29:52;44.70;17.00
80234;DHT22;69712;42.142;24.766;2023-07-30T07:32:18;44.70;16.60
80234;DHT22;69712;42.142;24.766;2023-07-30T07:34:48;44.70;16.60
80234;DHT22;69712;42.142;24.766;2023-07-30T07:37:14;44.10;16.90
80234;DHT22;69712;42.142;24.766;2023-07-30T07:39:47;44.40;16.60
80234;DHT22;69712;42.142;24.766;2023-07-30T07:42:13;44.30;17.40
80234;DHT22;69712;42.142;24.766;2023-07-30T07:44:38;44.70;16.50
80234;DHT22;69712;42.142;24.766;2023-07-30T07:47:04;45.20;16.40
80234;DHT22;69712;42.142;24.766;2023-07-30T07:49:30;45.20;15.70
80234;DHT22;69712;42.142;24.766;2023-07-30T07:51:55;44.90;16.70
80234;DHT22;69712;42.142;24.766;2023-07-30T07:54:21;44.90;16.20
80234;DHT22;69712;42.142;24.766;2023-07-30T07:56:47;43.60;16.70
80234;DHT22;69712;42.142;24.766;2023-07-30T07:59:13;43.50;16.90
80234;DHT22;69712;42.142;24.766;2023-07-30T08:01:38;43.90;17.00
80234;DHT22;69712;42.142;24.766;2023-07-30T08:04:04;44.40;16.50
80234;DHT22;69712;42.142;24.766;2023-07-30T08:06:32;44.70;16.40
80234;DHT22;69712;42.142;24.766;2023-07-30T08:08:57;45.20;15.80
80234;DHT22;69712;42.142;24.766;2023-07-30T08:11:23;45.90;16.00
80234;DHT22;69712;42.142;24.766;2023-07-30T08:13:49;45.70;15.40
80234;DHT22;69712;42.142;24.766;2023-07-30T08:16:14;45.80;15.30
80234;DHT22;69712;42.142;24.766;2023-07-30T08:18:40;45.50;15.30
80234;DHT22;69712;42.142;24.766;2023-07-30T08:21:06;44.80;15.70
80234;DHT22;69712;42.142;24.766;2023-07-30T08:23:32;43.30;16.70
80234;DHT22;69712;42.142;24.766;2023-07-30T08:25:57;43.70;16.70
80234;DHT22;69712;42.142;24.766;2023-07-30T08:28:23;43.50;16.70
80234;DHT22;69712;42.142;24.766;2023-07-30T08:30:49;42.70;17.60
80234;DHT22;69712;42.142;24.766;2023-07-30T08:33:14;42.80;16.90
80234;DHT22;69712;42.142;24.766;2023-07-30T08:35:40;42.20;17.50
80234;DHT22;69712;42.142;24.766;2023-07-30T08:38:06;43.60;16.90
80234;DHT22;69712;42.142;24.766;2023-07-30T08:40:32;44.80;16.00
80234;DHT22;69712;42.142;24.766;2023-07-30T08:42:58;45.30;15.70
80234;DHT22;69712;42.142;24.766;2023-07-30T08:45:23;45.70;15.10
80234;DHT22;69712;42.142;24.766;2023-07-30T08:47:49;43.20;16.10
80234;DHT22;69712;42.142;24.766;2023-07-30T08:50:15;42.30;17.10
80234;DHT22;69712;42.142;24.766;2023-07-30T08:52:41;43.50;16.50
80234;DHT22;69712;42.142;24.766;2023-07-30T08:55:08;43.50;16.30
80234;DHT22;69712;42.142;24.766;2023-07-30T08:57:35;42.80;17.20
80234;DHT22;69712;42.142;24.766;2023-07-30T09:00:09;43.70;16.40
80234;DHT22;69712;42.142;24.766;2023-07-30T09:02:50;44.60;15.90
80234;DHT22;69712;42.142;24.766;2023-07-30T09:05:17;45.50;15.30
80234;DHT22;69712;42.142;24.766;2023-07-30T09:07:42;45.30;15.30
80234;DHT22;69712;42.142;24.766;2023-07-30T09:10:08;43.50;16.70
80234;DHT22;69712;42.142;24.766;2023-07-30T09:12:35;44.00;15.90
80234;DHT22;69712;42.142;24.766;2023-07-30T09:15:05;45.10;15.50
80234;DHT22;69712;42.142;24.766;2023-07-30T09:17:31;45.90;15.30
80234;DHT22;69712;42.142;24.766;2023-07-30T09:19:59;46.30;14.90
80234;DHT22;69712;42.142;24.766;2023-07-30T09:22:30;46.70;14.50
80234;DHT22;69712;42.142;24.766;2023-07-30T09:25:01;45.00;15.40
80234;DHT22;69712;42.142;24.766;2023-07-30T09:27:28;43.50;15.90
80234;DHT22;69712;42.142;24.766;2023-07-30T09:29:58;43.60;16.20
80234;DHT22;69712;42.142;24.766;2023-07-30T09:32:33;45.20;15.50
80234;DHT22;69712;42.142;24.766;2023-07-30T09:35:10;45.90;16.10
80234;DHT22;69712;42.142;24.766;2023-07-30T09:37:40;46.80;14.80
80234;DHT22;69712;42.142;24.766;2023-07-30T09:40:10;46.50;14.40
80234;DHT22;69712;42.142;24.766;2023-07-30T09:42:38;47.30;14.60
80234;DHT22;69712;42.142;24.766;2023-07-30T09:45:06;46.30;15.00
80234;DHT22;69712;42.142;24.766;2023-07-30T09:47:37;46.50;14.60
80234;DHT22;69712;42.142;24.766;2023-07-30T09:50:03;45.20;15.30
80234;DHT22;69712;42.142;24.766;2023-07-30T09:52:30;45.10;15.40
80234;DHT22;69712;42.142;24.766;2023-07-30T09:54:58;43.80;16.40
80234;DHT22;69712;42.142;24.766;2023-07-30T09:57:24;43.60;16.70
80234;DHT22;69712;42.142;24.766;2023-07-30T09:59:50;42.00;18.20
80234;DHT22;69712;42.142;24.766;2023-07-30T10:02:16;41.30;17.90
80234;DHT22;69712;42.142;24.766;2023-07-30T10:04:43;40.10;18.50
80234;DHT22;69712;42.142;24.766;2023-07-30T10:07:16;39.60;19.30
80234;DHT22;69712;42.142;24.766;2023-07-30T10:09:44;38.80;19.60
80234;DHT22;69712;42.142;24.766;2023-07-30T10:12:16;38.50;21.30
80234;DHT22;69712;42.142;24.766;2023-07-30T10:14:43;38.50;19.80
80234;DHT22;69712;42.142;24.766;2023-07-30T10:17:12;38.20;20.50
80234;DHT22;69712;42.142;24.766;2023-07-30T10:19:38;38.80;19.70
80234;DHT22;69712;42.142;24.766;2023-07-30T10:24:39;37.50;20.40
80234;DHT22;69712;42.142;24.766;2023-07-30T10:27:09;37.00;21.00
80234;DHT22;69712;42.142;24.766;2023-07-30T10:29:39;37.10;20.80
80234;DHT22;69712;42.142;24.766;2023-07-30T10:32:07;36.70;20.70
80234;DHT22;69712;42.142;24.766;2023-07-30T10:34:46;36.80;20.90
80234;DHT22;69712;42.142;24.766;2023-07-30T10:37:18;36.40;21.50
80234;DHT22;69712;42.142;24.766;2023-07-30T10:39:44;36.40;21.50
80234;DHT22;69712;42.142;24.766;2023-07-30T10:42:13;36.00;21.40
80234;DHT22;69712;42.142;24.766;2023-07-30T10:44:43;35.50;22.20
80234;DHT22;69712;42.142;24.766;2023-07-30T10:47:09;35.50;21.90
80234;DHT22;69712;42.142;24.766;2023-07-30T10:49:39;34.80;22.00
80234;DHT22;69712;42.142;24.766;2023-07-30T10:52:12;34.70;22.90
80234;DHT22;69712;42.142;24.766;2023-07-30T10:54:37;35.10;22.10
80234;DHT22;69712;42.142;24.766;2023-07-30T10:57:04;35.60;21.30
80234;DHT22;69712;42.142;24.766;2023-07-30T10:59:37;35.80;22.00
80234;DHT22;69712;42.142;24.766;2023-07-30T11:02:03;36.40;20.50
80234;DHT22;69712;42.142;24.766;2023-07-30T11:04:33;36.90;20.10
80234;DHT22;69712;42.142;24.766;2023-07-30T11:06:59;36.90;19.80
80234;DHT22;69712;42.142;24.766;2023-07-30T11:09:26;37.10;19.70
80234;DHT22;69712;42.142;24.766;2023-07-30T11:11:55;38.10;18.80
80234;DHT22;69712;42.142;24.766;2023-07-30T11:14:25;38.50;18.60
80234;DHT22;69712;42.142;24.766;2023-07-30T11:16:56;38.60;18.40
80234;DHT22;69712;42.142;24.766;2023-07-30T11:19:25;38.20;18.30
80234;DHT22;69712;42.142;24.766;2023-07-30T11:21:53;39.40;17.70
80234;DHT22;69712;42.142;24.766;2023-07-30T11:24:19;39.40;17.80
80234;DHT22;69712;42.142;24.766;2023-07-30T11:26:57;39.30;17.50
80234;DHT22;69712;42.142;24.766;2023-07-30T11:29:23;40.90;16.80
80234;DHT22;69712;42.142;24.766;2023-07-30T11:31:49;42.20;15.90
80234;DHT22;69712;42.142;24.766;2023-07-30T11:34:15;42.40;15.90
80234;DHT22;69712;42.142;24.766;2023-07-30T11:36:42;43.80;15.10
80234;DHT22;69712;42.142;24.766;2023-07-30T11:39:08;44.70;14.40
80234;DHT22;69712;42.142;24.766;2023-07-30T11:41:35;43.50;15.20
80234;DHT22;69712;42.142;24.766;2023-07-30T11:44:02;44.50;14.30
80234;DHT22;69712;42.142;24.766;2023-07-30T11:46:27;44.30;15.00
80234;DHT22;69712;42.142;24.766;2023-07-30T11:49:19;44.90;14.20
80234;DHT22;69712;42.142;24.766;2023-07-30T11:51:47;44.10;14.40
80234;DHT22;69712;42.142;24.766;2023-07-30T11:54:22;44.30;14.20
80234;DHT22;69712;42.142;24.766;2023-07-30T11:56:55;44.30;14.30
80234;DHT22;69712;42.142;24.766;2023-07-30T11:59:21;44.90;13.80
80234;DHT22;69712;42.142;24.766;2023-07-30T12:01:49;45.80;13.40
80234;DHT22;69712;42.142;24.766;2023-07-30T12:04:15;45.50;13.80
80234;DHT22;69712;42.142;24.766;2023-07-30T12:09:18;44.40;14.60
80234;DHT22;69712;42.142;24.766;2023-07-30T12:11:52;43.30;14.50
80234;DHT22;69712;42.142;24.766;2023-07-30T12:14:19;40.50;15.70
80234;DHT22;69712;42.142;24.766;2023-07-30T12:16:47;40.20;16.20
80234;DHT22;69712;42.142;24.766;2023-07-30T12:19:13;39.60;16.30
80234;DHT22;69712;42.142;24.766;2023-07-30T12:21:38;39.50;16.30
80234;DHT22;69712;42.142;24.766;2023-07-30T12:24:04;38.50;16.20
80234;DHT22;69712;42.142;24.766;2023-07-30T12:26:30;38.40;16.50
80234;DHT22;69712;42.142;24.766;2023-07-30T12:28:56;37.90;17.30
80234;DHT22;69712;42.142;24.766;2023-07-30T12:31:22;38.00;16.90
80234;DHT22;69712;42.142;24.766;2023-07-30T12:33:47;37.40;17.10
80234;DHT22;69712;42.142;24.766;2023-07-30T12:36:13;37.30;17.50
80234;DHT22;69712;42.142;24.766;2023-07-30T12:38:39;37.60;17.50
80234;DHT22;69712;42.142;24.766;2023-07-30T12:41:05;38.10;17.30
80234;DHT22;69712;42.142;24.766;2023-07-30T12:43:30;39.00;17.00
80234;DHT22;69712;42.142;24.766;2023-07-30T12:45:56;39.30;16.60
80234;DHT22;69712;42.142;24.766;2023-07-30T12:48:22;40.70;16.10
80234;DHT22;69712;42.142;24.766;2023-07-30T12:50:47;40.90;15.50
80234;DHT22;69712;42.142;24.766;2023-07-30T12:53:13;42.10;15.10
80234;DHT22;69712;42.142;24.766;2023-07-30T12:55:39;40.30;15.70
80234;DHT22;69712;42.142;24.766;2023-07-30T12:58:05;39.60;16.40
80234;DHT22;69712;42.142;24.766;2023-07-30T13:00:33;40.90;16.20
80234;DHT22;69712;42.142;24.766;2023-07-30T13:02:58;40.60;15.90
80234;DHT22;69712;42.142;24.766;2023-07-30T13:05:25;41.70;15.40
80234;DHT22;69712;42.142;24.766;2023-07-30T13:07:50;39.10;16.20
80234;DHT22;69712;42.142;24.766;2023-07-30T13:10:16;39.60;16.10
80234;DHT22;69712;42.142;24.766;2023-07-30T13:12:42;40.40;16.00
80234;DHT22;69712;42.142;24.766;2023-07-30T13:15:08;41.40;15.10
80234;DHT22;69712;42.142;24.766;2023-07-30T13:17:34;40.50;16.10
80234;DHT22;69712;42.142;24.766;2023-07-30T13:19:59;40.90;15.70
80234;DHT22;69712;42.142;24.766;2023-07-30T13:22:26;41.10;15.40
80234;DHT22;69712;42.142;24.766;2023-07-30T13:24:52;41.80;14.60
80234;DHT22;69712;42.142;24.766;2023-07-30T13:27:18;41.70;14.30
80234;DHT22;69712;42.142;24.766;2023-07-30T13:29:44;43.00;14.20
80234;DHT22;69712;42.142;24.766;2023-07-30T13:32:10;41.30;14.70
80234;DHT22;69712;42.142;24.766;2023-07-30T13:34:36;41.80;13.90
80234;DHT22;69712;42.142;24.766;2023-07-30T13:37:01;42.00;13.90
80234;DHT22;69712;42.142;24.766;2023-07-30T13:39:27;42.60;13.90
80234;DHT22;69712;42.142;24.766;2023-07-30T13:41:53;41.80;13.90
80234;DHT22;69712;42.142;24.766;2023-07-30T13:44:20;41.60;14.40
80234;DHT22;69712;42.142;24.766;2023-07-30T13:46:46;42.40;14.20
80234;DHT22;69712;42.142;24.766;2023-07-30T13:49:12;42.90;14.00
80234;DHT22;69712;42.142;24.766;2023-07-30T13:51:37;42.00;13.90
80234;DHT22;69712;42.142;24.766;2023-07-30T13:54:03;41.10;14.00
80234;DHT22;69712;42.142;24.766;2023-07-30T13:56:30;40.60;14.80
80234;DHT22;69712;42.142;24.766;2023-07-30T13:58:56;40.10;16.40
80234;DHT22;69712;42.142;24.766;2023-07-30T14:01:22;39.40;15.80
80234;DHT22;69712;42.142;24.766;2023-07-30T14:03:48;38.50;15.80
80234;DHT22;69712;42.142;24.766;2023-07-30T14:06:14;38.10;16.70
80234;DHT22;69712;42.142;24.766;2023-07-30T14:08:39;37.70;16.70
80234;DHT22;69712;42.142;24.766;2023-07-30T14:11:05;37.00;17.10
80234;DHT22;69712;42.142;24.766;2023-07-30T14:13:31;36.70;17.90
80234;DHT22;69712;42.142;24.766;2023-07-30T14:15:57;36.80;17.00
80234;DHT22;69712;42.142;24.766;2023-07-30T14:18:24;36.80;17.30
80234;DHT22;69712;42.142;24.766;2023-07-30T14:20:50;36.30;17.00
80234;DHT22;69712;42.142;24.766;2023-07-30T14:23:15;36.30;17.40
80234;DHT22;69712;42.142;24.766;2023-07-30T14:25:41;36.30;17.60
80234;DHT22;69712;42.142;24.766;2023-07-30T14:28:07;36.40;17.40
80234;DHT22;69712;42.142;24.766;2023-07-30T14:30:32;36.10;17.40
80234;DHT22;69712;42.142;24.766;2023-07-30T14:32:59;36.10;17.50
80234;DHT22;69712;42.142;24.766;2023-07-30T14:35:25;35.90;18.10
80234;DHT22;69712;42.142;24.766;2023-07-30T14:37:51;35.60;18.00
80234;DHT22;69712;42.142;24.766;2023-07-30T14:40:16;35.50;18.60
80234;DHT22;69712;42.142;24.766;2023-07-30T14:42:43;35.50;18.20
80234;DHT22;69712;42.142;24.766;2023-07-30T14:45:09;35.50;17.90
80234;DHT22;69712;42.142;24.766;2023-07-30T14:47:35;35.10;17.90
80234;DHT22;69712;42.142;24.766;2023-07-30T14:50:00;34.90;18.20
80234;DHT22;69712;42.142;24.766;2023-07-30T14:52:27;35.00;18.30
80234;DHT22;69712;42.142;24.766;2023-07-30T14:54:53;35.10;18.40
80234;DHT22;69712;42.142;24.766;2023-07-30T14:57:19;35.30;18.00
80234;DHT22;69712;42.142;24.766;2023-07-30T14:59:45;35.30;17.80
80234;DHT22;69712;42.142;24.766;2023-07-30T15:02:11;35.30;17.60
80234;DHT22;69712;42.142;24.766;2023-07-30T15:04:38;35.20;17.90
80234;DHT22;69712;42.142;24.766;2023-07-30T15:07:04;35.00;18.70
80234;DHT22;69712;42.142;24.766;2023-07-30T15:09:30;35.00;18.10
80234;DHT22;69712;42.142;24.766;2023-07-30T15:12:00;34.90;18.10
80234;DHT22;69712;42.142;24.766;2023-07-30T15:14:26;35.00;18.30
80234;DHT22;69712;42.142;24.766;2023-07-30T15:16:53;35.10;18.10